Chesterfield, MO

12:29 PM CST on February 10, 2016 (GMT -0600)
Spirit Of Saint Louis | | Change Station
CLOSE
Current Station
Airport
Location: Spirit of St Louis,
Elevation: 463 ft
Nearby Weather Stations

Elev 463 ft 38.66 °N, 90.66 °W | Updated 35 minutes ago

Overcast
Overcast
23 °F
Feels Like 14 °F
N
8
Wind Variable Wind from West

Today
High -- | Low -- °F
--% Chance of Precip.
Yesterday
High -- | Low -- °F
Precip. -- in
Pressure 30.22 in
Visibility 10.0 miles
Clouds Overcast 5500 ft
Windchill 14 °F
Dew Point 9 °F
Humidity 55%
Rainfall 0.00 in
Snow Depth Not available.
6:59 AM 5:34 PM
Waxing Crescent, 6% visible
METAR KSUS 101754Z 26007KT 10SM OVC055 M05/M13 A3018 RMK AO2 SLP232 T10501128 11050 21117 55002
Pressure 30.22 in
Visibility 10.0 miles
Clouds Overcast 5500 ft
Windchill 14 °F
Dew Point 9 °F
Humidity 55%
Rainfall 0.00 in
Snow Depth Not available.
6:59 AM 5:34 PM
Waxing Crescent, 6% visible
METAR KSUS 101754Z 26007KT 10SM OVC055 M05/M13 A3018 RMK AO2 SLP232 T10501128 11050 21117 55002

10-Day Weather Forecast

Almanac

Astronomy

Feb. 10, 2016 Rise Set
Actual Time
Civil Twilight
Nautical Twilight
Astronomical Twilight
Moon
Length of Visible Light
Length of Day
Tomorrow will be .
, % of the Moon is Illuminated

Today's Extremes

State Highs State Lows

Community

WunderPhotos

Upload Photos

1,891,907 photos uploaded!

WunderBlog® & News

Nearby

Air Quality

  Air Quality AQ Index Pollutant
Not available.

Snow Depth

Station Depth Elevation

Earthquake Activity

City Distance Mag. Time & Date
Minimum magnitude displayed is 2.5.

Coastal Water Temperatures

Place Temperature

Stations

Nearby Weather Stations

Station Location Temp. Windchill Dew Point Humidity Wind Precip. Elev Updated Type
                   

Watches & Warnings

There are currently no watches in effect.